PASD Airport Information

Runway Information
Runway 13 Length 4000 ft width 150 ft
Elevation 21 ft Threshold 0 ft Heading 149
Runway 31 Length 4000 ft Width 150 ft
Elevation 21 ft Threshold 0 ft Heading 329
Airport Frequencies
Type AWOS Name AWOS 3 Frequency 134.85 MHZ
Type CLD Name CLNC DEL Frequency 122.3 MHZ
Type CNTR Name ANCHORAGE Frequency 125.35 MHZ
Type CTAF Name CTAF Frequency 122.3 MHZ
Type FSS Name COLD BAY R Frequency 122.3 MHZ
Type UNIC Name UNICOM Frequency 122.8 MHZ
Airport Navaids
Type NDB-DME Name Borland Frequency 390 KHZ
Airport Weather Information & NOTAM
ADDS - METARS form results

(0516 UTC 19 June 2019)
Data provider http://aviationweather.gov/metar/data/
 
Forecast for: PASD (SAND POINT , AK, US)
Text: PASD 182326Z 1900/1924 VRB06KT P6SM SCT040 SCT200 AMD LTD TO CLD VIS AND WIND
Forecast period: 0000 UTC 19 June 2019 to 0000 UTC 20 June 2019
Forecast type: FROM: standard forecast or significant change
Winds: variable direction winds at 7 MPH (6 knots; 3.1 m/s)
Visibility: 6 or more miles 10+ km)
Ceiling: at least 12,000 feet AGL
Clouds: scattered clouds at 4000 feet AGL
scattered clouds at 20000 feet AGL
Weather: no significant weather forecast for this period